createdAt,value
2022-11-13T00:01:24.264Z,12.60
2022-11-13T00:03:52.732Z,12.60
2022-11-13T00:06:21.695Z,12.60
2022-11-13T00:08:55.956Z,12.70
2022-11-13T00:11:24.509Z,12.70
2022-11-13T00:13:52.979Z,12.70
2022-11-13T00:16:22.466Z,12.70
2022-11-13T00:18:50.975Z,12.70
2022-11-13T00:21:20.939Z,12.70
2022-11-13T00:23:51.603Z,12.70
2022-11-13T00:26:22.522Z,12.70
2022-11-13T00:28:54.834Z,12.70
2022-11-13T00:31:23.523Z,12.80
2022-11-13T00:34:14.160Z,12.80
2022-11-13T00:36:40.996Z,12.80
2022-11-13T00:39:10.776Z,12.80
2022-11-13T00:41:39.163Z,12.80
2022-11-13T00:44:07.594Z,12.80
2022-11-13T00:46:35.858Z,12.80
2022-11-13T00:49:04.782Z,12.80
2022-11-13T00:51:33.710Z,12.80
2022-11-13T00:54:01.990Z,12.80
2022-11-13T00:56:31.655Z,12.80
2022-11-13T00:58:59.953Z,12.80
2022-11-13T01:01:28.383Z,12.80
2022-11-13T01:03:56.776Z,12.80
2022-11-13T01:06:27.803Z,12.80
2022-11-13T01:08:57.687Z,12.80
2022-11-13T01:11:28.449Z,12.80
2022-11-13T01:13:58.845Z,12.90
2022-11-13T01:16:28.800Z,12.90
2022-11-13T01:18:57.696Z,12.80
2022-11-13T01:21:27.784Z,12.80
2022-11-13T01:23:57.426Z,12.80
2022-11-13T01:26:28.410Z,12.80
2022-11-13T01:28:59.774Z,12.80
2022-11-13T01:31:30.072Z,12.80
2022-11-13T01:33:59.018Z,12.80
2022-11-13T01:36:29.484Z,12.80
2022-11-13T01:38:58.056Z,12.90
2022-11-13T01:41:28.607Z,12.90
2022-11-13T01:43:59.411Z,12.90
2022-11-13T01:46:30.166Z,12.80
2022-11-13T01:49:04.003Z,12.80
2022-11-13T01:51:40.179Z,12.90
2022-11-13T01:54:14.525Z,12.90
2022-11-13T01:56:43.340Z,12.90
2022-11-13T01:59:16.860Z,12.90
2022-11-13T02:01:45.220Z,13.00
2022-11-13T02:04:13.586Z,13.00
2022-11-13T02:06:45.385Z,13.00
2022-11-13T02:09:15.254Z,13.00
2022-11-13T02:11:43.724Z,13.00
2022-11-13T02:14:14.650Z,13.00
2022-11-13T02:16:45.306Z,13.00
2022-11-13T02:19:21.236Z,13.00
2022-11-13T02:21:56.274Z,13.00
2022-11-13T02:24:32.525Z,13.00
2022-11-13T02:27:05.710Z,13.00
2022-11-13T02:29:34.050Z,13.00
2022-11-13T02:32:02.307Z,13.00
2022-11-13T02:34:30.640Z,13.00
2022-11-13T02:36:58.901Z,13.00
2022-11-13T02:39:28.791Z,13.00
2022-11-13T02:41:57.177Z,13.00
2022-11-13T02:44:25.457Z,13.00
2022-11-13T02:46:53.737Z,13.00
2022-11-13T02:49:22.011Z,13.00
2022-11-13T02:51:50.440Z,13.00
2022-11-13T02:54:18.755Z,13.00
2022-11-13T02:56:48.468Z,13.00
2022-11-13T02:59:16.748Z,13.00
2022-11-13T03:01:45.850Z,13.10
2022-11-13T03:04:14.445Z,13.10
2022-11-13T03:06:42.811Z,13.10
2022-11-13T03:09:11.113Z,13.00
2022-11-13T03:11:39.455Z,13.00
2022-11-13T03:14:09.215Z,13.00
2022-11-13T03:16:37.902Z,13.00
2022-11-13T03:19:06.356Z,13.00
2022-11-13T03:21:34.643Z,13.00
2022-11-13T03:24:02.897Z,13.00
2022-11-13T03:26:31.157Z,13.00
2022-11-13T03:28:59.692Z,13.00
2022-11-13T03:31:29.423Z,13.00
2022-11-13T03:33:57.707Z,13.00
2022-11-13T03:36:26.014Z,13.00
2022-11-13T03:38:54.419Z,13.00
2022-11-13T03:41:23.755Z,13.00
2022-11-13T03:43:52.128Z,13.00
2022-11-13T03:46:20.432Z,13.00
2022-11-13T03:48:50.190Z,13.00
2022-11-13T03:51:18.507Z,13.00
2022-11-13T03:53:46.845Z,13.00
2022-11-13T03:56:15.133Z,13.10
2022-11-13T03:58:48.431Z,13.00
2022-11-13T04:01:17.836Z,13.00
2022-11-13T04:03:46.102Z,13.00
2022-11-13T04:06:16.220Z,13.00
2022-11-13T04:08:44.549Z,13.00
2022-11-13T04:11:14.319Z,13.00
2022-11-13T04:13:42.571Z,13.00
2022-11-13T04:16:10.848Z,13.00
2022-11-13T04:18:39.210Z,13.00
2022-11-13T04:21:07.947Z,13.00
2022-11-13T04:23:37.640Z,13.00
2022-11-13T04:26:06.296Z,13.00
2022-11-13T04:28:34.531Z,13.00
2022-11-13T04:31:02.947Z,13.00
2022-11-13T04:33:31.239Z,13.00
2022-11-13T04:35:59.484Z,13.00
2022-11-13T04:38:28.108Z,13.00
2022-11-13T04:41:11.869Z,13.00
2022-11-13T04:43:40.220Z,13.00
2022-11-13T04:46:09.132Z,13.00
2022-11-13T04:48:37.449Z,13.00
2022-11-13T04:51:06.187Z,13.00
2022-11-13T04:53:34.817Z,13.00
2022-11-13T04:56:06.760Z,13.00
2022-11-13T04:58:35.002Z,13.00
2022-11-13T05:01:04.139Z,13.00
2022-11-13T05:03:32.453Z,13.00
2022-11-13T05:06:05.375Z,13.00
2022-11-13T05:08:33.633Z,13.00
2022-11-13T05:11:04.305Z,13.00
2022-11-13T05:13:33.281Z,13.00
2022-11-13T05:16:02.890Z,13.00
2022-11-13T05:18:31.917Z,13.00
2022-11-13T05:21:00.256Z,13.00
2022-11-13T05:23:28.848Z,13.00
2022-11-13T05:26:05.096Z,13.00
2022-11-13T05:28:33.854Z,13.00
2022-11-13T05:31:06.319Z,13.00
2022-11-13T05:33:35.135Z,13.10
2022-11-13T05:36:04.406Z,13.00
2022-11-13T05:38:33.628Z,13.00
2022-11-13T05:41:08.391Z,13.10
2022-11-13T05:43:37.907Z,13.00
2022-11-13T05:46:08.198Z,13.00
2022-11-13T05:48:37.634Z,13.00
2022-11-13T05:51:07.637Z,13.00
2022-11-13T05:53:36.695Z,13.00
2022-11-13T05:56:08.152Z,13.00
2022-11-13T05:58:36.509Z,13.00
2022-11-13T06:01:10.167Z,13.00
2022-11-13T06:03:39.005Z,13.00
2022-11-13T06:06:07.917Z,13.00
2022-11-13T06:08:36.618Z,13.00
2022-11-13T06:11:08.429Z,13.00
2022-11-13T06:13:36.760Z,13.00
2022-11-13T06:16:07.827Z,13.00
2022-11-13T06:18:37.062Z,13.00
2022-11-13T06:21:07.135Z,13.00
2022-11-13T06:23:37.254Z,13.00
2022-11-13T06:26:08.717Z,13.00
2022-11-13T06:28:37.950Z,13.00
2022-11-13T06:31:07.115Z,13.00
2022-11-13T06:33:35.920Z,13.00
2022-11-13T06:36:05.434Z,13.00
2022-11-13T06:38:34.583Z,13.00
2022-11-13T06:41:03.515Z,13.00
2022-11-13T06:43:33.620Z,13.00
2022-11-13T06:46:06.028Z,13.00
2022-11-13T06:48:35.007Z,13.00
2022-11-13T06:51:04.322Z,13.10
2022-11-13T06:53:33.581Z,13.00
2022-11-13T06:56:02.600Z,13.00
2022-11-13T06:58:32.361Z,13.00
2022-11-13T07:01:06.967Z,13.10
2022-11-13T07:03:35.606Z,13.10
2022-11-13T07:06:05.287Z,13.10
2022-11-13T07:08:34.284Z,13.00
2022-11-13T07:11:03.016Z,13.00
2022-11-13T07:13:32.753Z,13.00
2022-11-13T07:16:15.941Z,13.00
2022-11-13T07:18:45.731Z,13.00
2022-11-13T07:21:14.518Z,13.00
2022-11-13T07:23:43.884Z,13.00
2022-11-13T07:26:12.810Z,13.00
2022-11-13T07:28:42.484Z,13.10
2022-11-13T07:31:12.364Z,13.00
2022-11-13T07:33:40.781Z,13.00
2022-11-13T07:36:11.310Z,13.00
2022-11-13T07:38:39.922Z,13.00
2022-11-13T07:41:08.562Z,13.00
2022-11-13T07:43:37.034Z,12.90
2022-11-13T07:46:07.745Z,12.90
2022-11-13T07:48:36.111Z,12.90
2022-11-13T07:51:04.835Z,12.90
2022-11-13T07:53:33.283Z,13.00
2022-11-13T07:56:05.604Z,13.00
2022-11-13T07:58:34.027Z,13.10
2022-11-13T08:01:08.643Z,13.10
2022-11-13T08:03:37.315Z,13.20
2022-11-13T08:06:07.232Z,13.20
2022-11-13T08:08:36.038Z,13.20
2022-11-13T08:11:09.019Z,13.20
2022-11-13T08:13:38.146Z,13.10
2022-11-13T08:16:09.096Z,13.10
2022-11-13T08:18:37.671Z,13.00
2022-11-13T08:21:13.481Z,13.10
2022-11-13T08:23:43.990Z,13.10
2022-11-13T08:26:12.576Z,13.00
2022-11-13T08:28:41.226Z,13.00
2022-11-13T08:31:14.112Z,13.00
2022-11-13T08:33:42.820Z,13.00
2022-11-13T08:36:12.366Z,13.10
2022-11-13T08:38:40.648Z,13.10
2022-11-13T08:41:09.855Z,13.10
2022-11-13T08:43:38.293Z,13.20
2022-11-13T08:46:06.863Z,13.30
2022-11-13T08:48:37.806Z,13.40
2022-11-13T08:51:06.229Z,13.40
2022-11-13T08:53:34.621Z,13.40
2022-11-13T08:56:03.363Z,13.40
2022-11-13T08:58:32.053Z,13.40
2022-11-13T09:01:04.762Z,13.50
2022-11-13T09:03:33.121Z,13.50
2022-11-13T09:06:05.903Z,13.50
2022-11-13T09:08:34.595Z,13.60
2022-11-13T09:11:06.912Z,13.60
2022-11-13T09:13:41.195Z,13.70
2022-11-13T09:16:12.370Z,13.70
2022-11-13T09:18:40.910Z,13.70
2022-11-13T09:21:11.246Z,13.70
2022-11-13T09:23:39.614Z,13.70
2022-11-13T09:26:08.214Z,13.60
2022-11-13T09:28:36.999Z,13.60
2022-11-13T09:31:06.233Z,13.60
2022-11-13T09:33:34.794Z,13.60
2022-11-13T09:36:03.273Z,13.60
2022-11-13T09:38:33.078Z,13.60
2022-11-13T09:41:05.731Z,13.60
2022-11-13T09:43:40.295Z,13.60
2022-11-13T09:46:17.051Z,13.70
2022-11-13T09:48:51.098Z,13.70
2022-11-13T09:51:22.599Z,13.70
2022-11-13T09:53:52.784Z,13.70
2022-11-13T09:56:29.132Z,13.80
2022-11-13T09:59:05.667Z,13.80
2022-11-13T10:01:45.877Z,13.90
2022-11-13T10:04:17.378Z,14.00
2022-11-13T10:06:57.167Z,14.00
2022-11-13T10:09:37.599Z,14.00
2022-11-13T10:12:08.830Z,13.90
2022-11-13T10:14:42.364Z,13.90
2022-11-13T10:17:21.217Z,13.90
2022-11-13T10:19:56.782Z,13.90
2022-11-13T10:22:34.004Z,13.90
2022-11-13T10:25:13.069Z,13.90
2022-11-13T10:27:41.618Z,13.90
2022-11-13T10:30:16.002Z,13.90
2022-11-13T10:32:46.450Z,14.00
2022-11-13T10:35:39.019Z,14.10
2022-11-13T10:38:10.452Z,14.20
2022-11-13T10:40:41.754Z,14.20
2022-11-13T10:43:15.949Z,14.30
2022-11-13T10:45:45.108Z,14.30
2022-11-13T10:48:23.530Z,14.20
2022-11-13T10:50:56.816Z,14.20
2022-11-13T10:53:28.152Z,14.20
2022-11-13T10:56:00.752Z,14.20
2022-11-13T10:58:29.476Z,14.30
2022-11-13T11:00:58.023Z,14.30
2022-11-13T11:03:27.344Z,14.40
2022-11-13T11:05:57.431Z,14.40
2022-11-13T11:08:31.284Z,14.40
2022-11-13T11:11:20.889Z,14.40
2022-11-13T11:13:50.291Z,14.50
2022-11-13T11:16:22.939Z,14.60
2022-11-13T11:18:56.494Z,14.60
2022-11-13T11:21:30.350Z,14.60
2022-11-13T11:24:02.508Z,14.60
2022-11-13T11:26:36.704Z,14.60
2022-11-13T11:29:18.775Z,14.60
2022-11-13T11:31:54.459Z,14.60
2022-11-13T11:34:27.112Z,14.60
2022-11-13T11:37:05.324Z,14.70
2022-11-13T11:39:39.783Z,14.70
2022-11-13T11:42:22.373Z,14.70
2022-11-13T11:45:01.663Z,14.70
2022-11-13T11:47:30.408Z,14.70
2022-11-13T11:49:59.026Z,14.80
2022-11-13T11:52:55.871Z,15.00
2022-11-13T11:55:44.565Z,15.10
2022-11-13T11:58:30.650Z,15.10
2022-11-13T12:01:06.106Z,15.10
2022-11-13T12:03:52.600Z,15.10
2022-11-13T12:06:29.425Z,15.00
2022-11-13T12:09:07.731Z,14.90
2022-11-13T12:11:39.826Z,14.80
2022-11-13T12:14:18.844Z,14.80
2022-11-13T12:16:55.912Z,14.70
2022-11-13T12:19:32.425Z,14.70
2022-11-13T12:22:09.997Z,14.70
2022-11-13T12:24:51.582Z,14.70
2022-11-13T12:27:29.369Z,14.60
2022-11-13T12:30:17.283Z,14.40
2022-11-13T12:32:57.252Z,14.30
2022-11-13T12:35:27.270Z,14.20
2022-11-13T12:37:59.131Z,14.10
2022-11-13T12:40:34.836Z,14.00
2022-11-13T12:43:24.419Z,13.90
2022-11-13T12:45:56.288Z,13.90
2022-11-13T12:48:33.984Z,13.80
2022-11-13T12:51:04.860Z,13.80
2022-11-13T12:53:44.991Z,13.80
2022-11-13T12:56:17.747Z,13.80
2022-11-13T12:59:28.356Z,13.70
2022-11-13T13:01:57.035Z,13.70
2022-11-13T13:04:51.435Z,13.70
2022-11-13T13:07:32.949Z,13.70
2022-11-13T13:10:13.396Z,13.70
2022-11-13T13:12:50.883Z,13.60
2022-11-13T13:15:33.269Z,13.60
2022-11-13T13:18:11.627Z,13.60
2022-11-13T13:20:41.723Z,13.60
2022-11-13T13:23:14.724Z,13.60
2022-11-13T13:25:43.279Z,13.50
2022-11-13T13:28:23.120Z,13.50
2022-11-13T13:30:59.729Z,13.50
2022-11-13T13:33:43.908Z,13.50
2022-11-13T13:36:23.056Z,13.60
2022-11-13T13:38:58.410Z,13.60
2022-11-13T13:41:37.091Z,13.50
2022-11-13T13:44:31.929Z,13.50
2022-11-13T13:47:00.448Z,13.50
2022-11-13T13:49:30.505Z,13.50
2022-11-13T13:51:59.452Z,13.50
2022-11-13T13:54:31.890Z,13.50
2022-11-13T13:57:00.576Z,13.40
2022-11-13T13:59:34.670Z,13.50
2022-11-13T14:02:05.216Z,13.40
2022-11-13T14:04:43.709Z,13.40
2022-11-13T14:07:21.983Z,13.40
2022-11-13T14:09:50.856Z,13.30
2022-11-13T14:12:21.337Z,13.30
2022-11-13T14:14:49.940Z,13.30
2022-11-13T14:17:25.582Z,13.30
2022-11-13T14:20:00.966Z,13.30
2022-11-13T14:22:29.956Z,13.20
2022-11-13T14:25:01.934Z,13.20
2022-11-13T14:27:31.264Z,13.20
2022-11-13T14:30:02.984Z,13.20
2022-11-13T14:32:34.493Z,13.20
2022-11-13T14:35:06.419Z,13.10
2022-11-13T14:37:37.347Z,13.10
2022-11-13T14:40:14.774Z,13.10
2022-11-13T14:42:47.940Z,13.10
2022-11-13T14:45:19.487Z,13.00
2022-11-13T14:47:58.028Z,13.00
2022-11-13T14:50:30.955Z,13.00
2022-11-13T14:53:01.527Z,13.00
2022-11-13T14:55:31.994Z,12.90
2022-11-13T14:58:00.772Z,12.90
2022-11-13T15:00:32.533Z,12.90
2022-11-13T15:03:01.837Z,12.90
2022-11-13T15:05:31.933Z,12.80
2022-11-13T15:08:01.487Z,12.80
2022-11-13T15:10:32.039Z,12.70
2022-11-13T15:13:00.299Z,12.70
2022-11-13T15:15:31.052Z,12.70
2022-11-13T15:17:59.457Z,12.60
2022-11-13T15:20:29.326Z,12.60
2022-11-13T15:23:00.893Z,12.60
2022-11-13T15:25:29.253Z,12.50
2022-11-13T15:27:57.488Z,12.50
2022-11-13T15:30:25.771Z,12.40
2022-11-13T15:32:54.862Z,12.40
2022-11-13T15:35:23.218Z,12.30
2022-11-13T15:37:51.584Z,12.30
2022-11-13T15:40:21.430Z,12.30
2022-11-13T15:42:49.728Z,12.20
2022-11-13T15:45:18.883Z,12.20
2022-11-13T15:47:47.208Z,12.20
2022-11-13T15:50:16.377Z,12.10
2022-11-13T15:52:47.719Z,12.10
2022-11-13T15:55:27.822Z,12.00
2022-11-13T15:57:56.782Z,12.00
2022-11-13T16:00:26.940Z,11.90
2022-11-13T16:02:56.467Z,11.90
2022-11-13T16:05:26.255Z,11.80
2022-11-13T16:07:55.252Z,11.80
2022-11-13T16:10:26.130Z,11.70
2022-11-13T16:12:54.624Z,11.70
2022-11-13T16:15:22.923Z,11.70
2022-11-13T16:17:54.708Z,11.60
2022-11-13T16:20:23.273Z,11.60
2022-11-13T16:22:51.965Z,11.60
2022-11-13T16:25:21.755Z,11.60
2022-11-13T16:27:53.476Z,11.50
2022-11-13T16:30:24.940Z,11.50
2022-11-13T16:32:53.208Z,11.40
2022-11-13T16:35:21.942Z,11.40
2022-11-13T16:37:50.222Z,11.30
2022-11-13T16:40:21.795Z,11.40
2022-11-13T16:42:51.797Z,11.30
2022-11-13T16:45:21.228Z,11.30
2022-11-13T16:47:50.690Z,11.20
2022-11-13T16:50:21.620Z,11.20
2022-11-13T16:52:51.191Z,11.20
2022-11-13T16:55:19.542Z,11.20
2022-11-13T16:57:47.838Z,11.10
2022-11-13T17:00:19.897Z,11.10
2022-11-13T17:02:51.426Z,11.10
2022-11-13T17:05:20.993Z,11.10
2022-11-13T17:07:50.902Z,11.00
2022-11-13T17:10:31.292Z,11.00
2022-11-13T17:13:01.095Z,11.00
2022-11-13T17:15:32.599Z,11.00
2022-11-13T17:18:01.060Z,11.00
2022-11-13T17:20:29.376Z,11.00
2022-11-13T17:22:57.737Z,10.90
2022-11-13T17:25:28.167Z,10.90
2022-11-13T17:27:56.569Z,10.90
2022-11-13T17:30:24.944Z,10.90
2022-11-13T17:32:54.574Z,11.00
2022-11-13T17:35:23.172Z,10.90
2022-11-13T17:37:51.435Z,11.00
2022-11-13T17:40:19.869Z,11.10
2022-11-13T17:42:49.579Z,11.10
2022-11-13T17:45:18.052Z,11.20
2022-11-13T17:47:46.327Z,11.20
2022-11-13T17:50:16.378Z,11.30
2022-11-13T17:52:44.747Z,11.30
2022-11-13T17:55:14.201Z,11.30
2022-11-13T17:57:42.562Z,11.30
2022-11-13T18:00:12.054Z,11.30
2022-11-13T18:02:40.707Z,11.30
2022-11-13T18:05:10.099Z,11.40
2022-11-13T18:07:40.308Z,11.30
2022-11-13T18:10:11.059Z,11.30
2022-11-13T18:12:39.557Z,11.30
2022-11-13T18:15:08.912Z,11.30
2022-11-13T18:17:37.268Z,11.30
2022-11-13T18:20:06.143Z,11.20
2022-11-13T18:22:34.444Z,11.20
2022-11-13T18:25:04.481Z,11.20
2022-11-13T18:27:32.814Z,11.20
2022-11-13T18:30:01.350Z,11.20
2022-11-13T18:32:29.716Z,11.20
2022-11-13T18:34:57.999Z,11.30
2022-11-13T18:37:26.303Z,11.20
2022-11-13T18:39:54.528Z,11.20
2022-11-13T18:42:24.328Z,11.20
2022-11-13T18:44:52.642Z,11.20
2022-11-13T18:47:20.942Z,11.20
2022-11-13T18:49:49.254Z,11.10
2022-11-13T18:52:17.581Z,11.10
2022-11-13T18:54:46.182Z,11.10
2022-11-13T18:57:14.438Z,11.10
2022-11-13T18:59:44.188Z,11.10
2022-11-13T19:02:12.992Z,11.00
2022-11-13T19:04:41.367Z,11.00
2022-11-13T19:07:12.403Z,10.90
2022-11-13T19:09:45.992Z,10.90
2022-11-13T19:12:14.237Z,10.90
2022-11-13T19:14:43.994Z,10.90
2022-11-13T19:17:12.647Z,10.80
2022-11-13T19:19:42.384Z,10.90
2022-11-13T19:22:10.741Z,10.90
2022-11-13T19:24:39.019Z,10.90
2022-11-13T19:27:07.319Z,10.90
2022-11-13T19:29:35.689Z,10.90
2022-11-13T19:32:07.706Z,10.90
2022-11-13T19:34:35.985Z,10.90
2022-11-13T19:37:04.472Z,10.90
2022-11-13T19:39:32.789Z,10.90
2022-11-13T19:42:01.174Z,10.90
2022-11-13T19:44:29.484Z,10.90
2022-11-13T19:46:57.796Z,10.90
2022-11-13T19:49:27.617Z,10.90
2022-11-13T19:51:56.227Z,11.00
2022-11-13T19:54:24.627Z,10.90
2022-11-13T19:56:53.087Z,11.00
2022-11-13T19:59:21.335Z,11.00
2022-11-13T20:01:49.637Z,11.00
2022-11-13T20:04:20.336Z,11.00
2022-11-13T20:06:50.930Z,11.00
2022-11-13T20:09:19.281Z,11.00
2022-11-13T20:11:47.787Z,11.00
2022-11-13T20:14:16.677Z,11.00
2022-11-13T20:16:44.918Z,10.90
2022-11-13T20:19:13.265Z,10.90
2022-11-13T20:21:41.652Z,10.90
2022-11-13T20:24:11.955Z,10.90
2022-11-13T20:26:40.216Z,10.80
2022-11-13T20:29:08.499Z,10.80
2022-11-13T20:31:36.830Z,10.90
2022-11-13T20:34:05.175Z,10.80
2022-11-13T20:36:33.430Z,10.80
2022-11-13T20:39:05.502Z,10.80
2022-11-13T20:41:38.139Z,10.80
2022-11-13T20:44:06.862Z,10.80
2022-11-13T20:46:35.164Z,10.80
2022-11-13T20:49:03.630Z,10.80
2022-11-13T20:51:32.409Z,10.80
2022-11-13T20:54:01.108Z,10.90
2022-11-13T20:56:29.427Z,10.90
2022-11-13T20:58:59.556Z,10.90
2022-11-13T21:01:28.050Z,10.90
2022-11-13T21:03:59.594Z,10.90
2022-11-13T21:06:28.036Z,10.90
2022-11-13T21:08:57.868Z,10.80
2022-11-13T21:11:26.754Z,10.80
2022-11-13T21:13:56.676Z,10.80
2022-11-13T21:16:28.248Z,10.70
2022-11-13T21:18:57.781Z,10.70
2022-11-13T21:21:28.929Z,10.60
2022-11-13T21:23:58.889Z,10.60
2022-11-13T21:26:28.567Z,10.50
2022-11-13T21:28:57.336Z,10.50
2022-11-13T21:31:27.994Z,10.50
2022-11-13T21:33:57.554Z,10.50
2022-11-13T21:36:27.353Z,10.50
2022-11-13T21:38:56.934Z,10.50
2022-11-13T21:41:26.145Z,10.50
2022-11-13T21:43:58.917Z,10.50
2022-11-13T21:46:30.624Z,10.50
2022-11-13T21:49:01.122Z,10.50
2022-11-13T21:51:29.745Z,10.40
2022-11-13T21:53:58.556Z,10.40
2022-11-13T21:56:28.275Z,10.40
2022-11-13T21:58:57.136Z,10.40
2022-11-13T22:01:26.147Z,10.40
2022-11-13T22:03:56.121Z,10.40
2022-11-13T22:06:26.044Z,10.40
2022-11-13T22:08:58.858Z,10.40
2022-11-13T22:11:28.891Z,10.40
2022-11-13T22:13:57.685Z,10.40
2022-11-13T22:16:27.380Z,10.40
2022-11-13T22:18:58.592Z,10.40
2022-11-13T22:21:29.223Z,10.30
2022-11-13T22:23:57.768Z,10.40
2022-11-13T22:26:27.717Z,10.40
2022-11-13T22:28:57.164Z,10.40
2022-11-13T22:31:28.166Z,10.40
2022-11-13T22:33:58.463Z,10.40
2022-11-13T22:36:29.040Z,10.40
2022-11-13T22:38:58.040Z,10.40
2022-11-13T22:41:29.393Z,10.40
2022-11-13T22:44:00.640Z,10.40
2022-11-13T22:46:30.869Z,10.40
2022-11-13T22:49:04.053Z,10.40
2022-11-13T22:51:35.117Z,10.30
2022-11-13T22:54:05.810Z,10.30
2022-11-13T22:56:35.463Z,10.30
2022-11-13T22:59:05.511Z,10.20
2022-11-13T23:01:35.127Z,10.20
2022-11-13T23:04:08.229Z,10.20
2022-11-13T23:06:37.844Z,10.20
2022-11-13T23:09:07.379Z,10.20
2022-11-13T23:11:38.762Z,10.10
2022-11-13T23:14:10.038Z,10.00
2022-11-13T23:16:38.531Z,10.00
2022-11-13T23:19:08.303Z,10.00
2022-11-13T23:21:36.639Z,9.90
2022-11-13T23:24:05.576Z,9.90
2022-11-13T23:26:34.003Z,9.90
2022-11-13T23:29:02.230Z,9.90
2022-11-13T23:31:30.648Z,9.90
2022-11-13T23:33:58.946Z,9.90
2022-11-13T23:36:30.598Z,9.90
2022-11-13T23:38:59.090Z,10.00
2022-11-13T23:41:27.427Z,10.10
2022-11-13T23:44:11.529Z,10.00
2022-11-13T23:46:39.817Z,10.00
2022-11-13T23:49:08.322Z,10.00
2022-11-13T23:51:38.006Z,10.00
2022-11-13T23:54:06.396Z,10.00
2022-11-13T23:56:34.697Z,10.00
2022-11-13T23:59:03.063Z,10.00
